createdAt,value
2019-05-07T00:02:06.205Z,99.90
2019-05-07T00:04:35.218Z,99.90
2019-05-07T00:07:04.385Z,99.90
2019-05-07T00:09:33.566Z,99.90
2019-05-07T00:12:05.124Z,99.90
2019-05-07T00:14:34.594Z,99.90
2019-05-07T00:17:04.602Z,99.90
2019-05-07T00:19:33.967Z,99.90
2019-05-07T00:22:03.101Z,99.90
2019-05-07T00:24:33.186Z,99.90
2019-05-07T00:27:02.932Z,99.90
2019-05-07T00:29:32.330Z,99.90
2019-05-07T00:32:02.980Z,99.90
2019-05-07T00:34:38.252Z,99.90
2019-05-07T00:37:13.828Z,99.90
2019-05-07T00:40:06.702Z,99.90
2019-05-07T00:42:54.832Z,99.90
2019-05-07T00:45:33.890Z,99.90
2019-05-07T00:48:03.289Z,99.90
2019-05-07T00:50:34.532Z,99.90
2019-05-07T00:53:03.669Z,99.90
2019-05-07T00:55:32.723Z,99.90
2019-05-07T00:58:02.420Z,99.90
2019-05-07T01:00:33.293Z,99.90
2019-05-07T01:03:03.124Z,99.90
2019-05-07T01:05:32.684Z,99.90
2019-05-07T01:08:02.689Z,99.90
2019-05-07T01:10:32.962Z,99.90
2019-05-07T01:13:02.909Z,99.90
2019-05-07T01:15:34.643Z,99.90
2019-05-07T01:18:03.030Z,99.90
2019-05-07T01:20:32.971Z,99.90
2019-05-07T01:23:02.752Z,99.90
2019-05-07T01:25:32.842Z,99.90
2019-05-07T01:28:02.729Z,99.90
2019-05-07T01:30:32.671Z,99.90
2019-05-07T01:33:07.880Z,99.90
2019-05-07T01:35:54.948Z,99.90
2019-05-07T01:38:23.999Z,99.90
2019-05-07T01:40:53.342Z,99.90
2019-05-07T01:43:22.837Z,99.90
2019-05-07T01:45:52.953Z,99.90
2019-05-07T01:48:27.923Z,99.90
2019-05-07T01:50:57.300Z,99.90
2019-05-07T01:53:26.343Z,99.90
2019-05-07T01:55:55.487Z,99.90
2019-05-07T01:58:24.692Z,99.90
2019-05-07T02:00:53.868Z,99.90
2019-05-07T02:03:33.259Z,99.90
2019-05-07T02:06:13.252Z,99.90
2019-05-07T02:08:52.921Z,99.90
2019-05-07T02:11:25.867Z,99.90
2019-05-07T02:13:54.850Z,99.90
2019-05-07T02:16:24.120Z,99.90
2019-05-07T02:18:53.104Z,99.90
2019-05-07T02:21:22.226Z,99.90
2019-05-07T02:23:52.456Z,99.90
2019-05-07T02:26:22.567Z,99.90
2019-05-07T02:28:52.011Z,99.90
2019-05-07T02:31:23.240Z,99.90
2019-05-07T02:33:54.165Z,99.90
2019-05-07T02:36:23.686Z,99.90
2019-05-07T02:39:12.834Z,99.90
2019-05-07T02:41:44.106Z,99.90
2019-05-07T02:44:14.006Z,99.90
2019-05-07T02:46:52.558Z,99.90
2019-05-07T02:49:43.864Z,99.90
2019-05-07T02:52:43.722Z,99.90
2019-05-07T02:55:23.558Z,99.90
2019-05-07T02:57:54.059Z,99.90
2019-05-07T03:00:24.321Z,99.90
2019-05-07T03:02:53.764Z,99.90
2019-05-07T03:05:23.314Z,99.90
2019-05-07T03:07:53.493Z,99.90
2019-05-07T03:10:23.992Z,99.90
2019-05-07T03:12:53.866Z,99.90
2019-05-07T03:15:24.253Z,99.90
2019-05-07T03:17:53.991Z,99.90
2019-05-07T03:20:28.207Z,99.90
2019-05-07T03:22:58.448Z,99.90
2019-05-07T03:25:33.871Z,99.90
2019-05-07T03:28:04.411Z,99.90
2019-05-07T03:30:45.598Z,99.90
2019-05-07T03:33:37.527Z,99.90
2019-05-07T03:36:07.992Z,99.90
2019-05-07T03:38:38.430Z,99.90
2019-05-07T03:41:07.564Z,99.90
2019-05-07T03:43:36.740Z,99.90
2019-05-07T03:46:17.169Z,99.90
2019-05-07T03:48:47.248Z,99.90
2019-05-07T03:51:16.788Z,99.90
2019-05-07T03:53:45.807Z,99.90
2019-05-07T03:56:14.884Z,99.90
2019-05-07T03:58:44.083Z,99.90
2019-05-07T04:01:13.670Z,99.90
2019-05-07T04:03:44.747Z,99.90
2019-05-07T04:06:13.935Z,99.90
2019-05-07T04:08:43.548Z,99.90
2019-05-07T04:11:13.828Z,99.90
2019-05-07T04:13:44.315Z,99.90
2019-05-07T04:16:13.922Z,99.90
2019-05-07T04:18:43.953Z,99.90
2019-05-07T04:21:14.048Z,99.90
2019-05-07T04:23:44.059Z,99.90
2019-05-07T04:26:35.824Z,99.90
2019-05-07T04:29:07.535Z,99.90
2019-05-07T04:31:42.940Z,99.90
2019-05-07T04:34:16.567Z,99.90
2019-05-07T04:36:53.474Z,99.90
2019-05-07T04:39:27.578Z,99.90
2019-05-07T04:41:56.815Z,99.90
2019-05-07T04:44:25.867Z,99.90
2019-05-07T04:46:55.129Z,99.90
2019-05-07T04:49:24.265Z,99.90
2019-05-07T04:52:00.009Z,99.90
2019-05-07T04:54:29.237Z,99.90
2019-05-07T04:56:58.829Z,99.90
2019-05-07T04:59:28.059Z,99.90
2019-05-07T05:02:04.304Z,99.90
2019-05-07T05:04:34.931Z,99.90
2019-05-07T05:07:09.140Z,99.90
2019-05-07T05:09:44.127Z,99.90
2019-05-07T05:12:13.500Z,99.90
2019-05-07T05:14:43.677Z,99.90
2019-05-07T05:17:13.250Z,99.90
2019-05-07T05:19:43.876Z,99.90
2019-05-07T05:22:34.256Z,99.90
2019-05-07T05:25:19.803Z,99.90
2019-05-07T05:27:49.012Z,99.90
2019-05-07T05:30:25.600Z,99.90
2019-05-07T05:32:54.806Z,99.90
2019-05-07T05:35:23.950Z,99.90
2019-05-07T05:37:52.945Z,99.90
2019-05-07T05:40:22.771Z,99.90
2019-05-07T05:42:58.299Z,99.90
2019-05-07T05:45:42.623Z,99.90
2019-05-07T05:48:13.568Z,99.90
2019-05-07T05:50:50.096Z,99.90
2019-05-07T05:53:32.707Z,99.90
2019-05-07T05:56:06.138Z,99.90
2019-05-07T05:58:54.439Z,99.90
2019-05-07T06:01:39.792Z,99.90
2019-05-07T06:04:22.180Z,99.90
2019-05-07T06:07:10.535Z,99.90
2019-05-07T06:09:32.959Z,99.90
2019-05-07T06:12:36.667Z,99.90
2019-05-07T06:15:23.839Z,99.90
2019-05-07T06:18:06.873Z,99.90
2019-05-07T06:20:46.702Z,99.90
2019-05-07T06:23:25.808Z,99.90
2019-05-07T06:25:54.912Z,99.90
2019-05-07T06:28:24.075Z,99.90
2019-05-07T06:30:53.470Z,99.90
2019-05-07T06:33:23.133Z,99.90
2019-05-07T06:35:52.399Z,99.90
2019-05-07T06:38:22.458Z,99.90
2019-05-07T06:40:58.779Z,99.90
2019-05-07T06:43:35.885Z,99.90
2019-05-07T06:46:12.542Z,99.90
2019-05-07T06:48:46.374Z,99.90
2019-05-07T06:51:17.563Z,99.90
2019-05-07T06:53:46.687Z,99.90
2019-05-07T06:56:15.930Z,99.90
2019-05-07T06:59:02.064Z,99.90
2019-05-07T07:01:43.314Z,99.90
2019-05-07T07:04:33.151Z,99.90
2019-05-07T07:07:32.357Z,99.90
2019-05-07T07:10:07.502Z,99.90
2019-05-07T07:12:36.711Z,99.90
2019-05-07T07:15:06.501Z,99.90
2019-05-07T07:17:36.048Z,99.90
2019-05-07T07:20:12.535Z,99.90
2019-05-07T07:22:42.567Z,99.90
2019-05-07T07:25:12.012Z,99.90
2019-05-07T07:27:42.948Z,99.90
2019-05-07T07:30:26.142Z,99.90
2019-05-07T07:32:55.464Z,99.90
2019-05-07T07:35:24.639Z,99.90
2019-05-07T07:37:53.884Z,99.90
2019-05-07T07:40:36.460Z,99.90
2019-05-07T07:43:07.204Z,99.90
2019-05-07T07:45:36.579Z,99.90
2019-05-07T07:48:05.750Z,99.90
2019-05-07T07:50:34.850Z,99.90
2019-05-07T07:53:04.241Z,99.90
2019-05-07T07:55:53.008Z,99.90
2019-05-07T07:59:01.899Z,99.90
2019-05-07T08:01:39.543Z,99.90
2019-05-07T08:04:09.015Z,99.90
2019-05-07T08:06:41.811Z,99.90
2019-05-07T08:09:12.885Z,99.90
2019-05-07T08:11:42.551Z,99.20
2019-05-07T08:14:12.739Z,99.60
2019-05-07T08:16:43.075Z,99.00
2019-05-07T08:19:21.675Z,99.90
2019-05-07T08:21:43.284Z,99.90
2019-05-07T08:24:12.484Z,98.50
2019-05-07T08:26:42.834Z,98.50
2019-05-07T08:29:12.483Z,98.90
2019-05-07T08:31:52.174Z,98.70
2019-05-07T08:34:28.842Z,98.40
2019-05-07T08:36:58.023Z,98.30
2019-05-07T08:39:27.179Z,98.10
2019-05-07T08:41:56.303Z,98.40
2019-05-07T08:44:32.424Z,97.70
2019-05-07T08:47:35.172Z,98.00
2019-05-07T08:50:04.687Z,97.90
2019-05-07T08:52:34.013Z,97.90
2019-05-07T08:55:04.811Z,97.60
2019-05-07T08:57:34.015Z,96.90
2019-05-07T09:00:04.675Z,96.10
2019-05-07T09:02:33.993Z,96.20
2019-05-07T09:05:03.183Z,96.30
2019-05-07T09:07:32.452Z,95.60
2019-05-07T09:10:02.509Z,95.40
2019-05-07T09:12:31.944Z,95.90
2019-05-07T09:15:02.182Z,95.60
2019-05-07T09:17:35.235Z,94.80
2019-05-07T09:20:04.654Z,95.50
2019-05-07T09:22:33.807Z,96.10
2019-05-07T09:25:03.270Z,96.20
2019-05-07T09:27:38.552Z,95.60
2019-05-07T09:30:42.846Z,96.00
2019-05-07T09:33:46.657Z,94.20
2019-05-07T09:36:24.231Z,94.10
2019-05-07T09:38:59.186Z,92.80
2019-05-07T09:41:27.165Z,93.70
2019-05-07T09:43:59.117Z,93.20
2019-05-07T09:46:32.523Z,92.90
2019-05-07T09:49:25.969Z,92.50
2019-05-07T09:51:56.056Z,92.60
2019-05-07T09:54:25.328Z,92.30
2019-05-07T09:56:55.239Z,92.20
2019-05-07T09:59:27.637Z,92.60
2019-05-07T10:01:58.196Z,92.50
2019-05-07T10:04:28.767Z,91.70
2019-05-07T10:06:58.576Z,91.30
2019-05-07T10:09:28.543Z,90.30
2019-05-07T10:12:06.778Z,91.10
2019-05-07T10:14:36.686Z,91.30
2019-05-07T10:17:15.063Z,91.40
2019-05-07T10:19:44.289Z,91.40
2019-05-07T10:22:13.601Z,91.80
2019-05-07T10:24:44.172Z,90.50
2019-05-07T10:27:34.924Z,90.90
2019-05-07T10:30:06.350Z,90.60
2019-05-07T10:32:35.518Z,90.90
2019-05-07T10:35:05.316Z,91.70
2019-05-07T10:37:34.600Z,91.00
2019-05-07T10:40:03.998Z,91.20
2019-05-07T10:42:33.752Z,91.30
2019-05-07T10:45:22.078Z,90.20
2019-05-07T10:48:02.420Z,90.00
2019-05-07T10:50:38.387Z,89.20
2019-05-07T10:53:02.665Z,87.30
2019-05-07T10:55:32.812Z,87.40
2019-05-07T10:58:03.121Z,85.50
2019-05-07T11:00:33.111Z,87.60
2019-05-07T11:03:02.618Z,86.30
2019-05-07T11:05:32.622Z,85.40
2019-05-07T11:08:02.465Z,87.70
2019-05-07T11:10:32.715Z,86.50
2019-05-07T11:13:02.475Z,86.90
2019-05-07T11:15:32.664Z,84.50
2019-05-07T11:18:13.514Z,83.10
2019-05-07T11:20:49.651Z,84.10
2019-05-07T11:23:13.534Z,84.10
2019-05-07T11:25:42.759Z,85.30
2019-05-07T11:28:12.484Z,85.40
2019-05-07T11:30:42.495Z,85.80
2019-05-07T11:33:12.881Z,85.40
2019-05-07T11:35:42.528Z,85.30
2019-05-07T11:38:20.508Z,84.60
2019-05-07T11:40:42.940Z,87.20
2019-05-07T11:43:26.708Z,87.60
2019-05-07T11:46:05.863Z,87.60
2019-05-07T11:48:38.202Z,85.00
2019-05-07T11:51:15.231Z,82.60
2019-05-07T11:54:12.857Z,83.20
2019-05-07T11:56:47.915Z,84.10
2019-05-07T11:59:22.201Z,83.70
2019-05-07T12:01:56.343Z,83.40
2019-05-07T12:04:27.835Z,83.90
2019-05-07T12:06:56.479Z,84.00
2019-05-07T12:09:25.620Z,85.90
2019-05-07T12:11:54.793Z,85.70
2019-05-07T12:14:30.930Z,86.30
2019-05-07T12:16:55.210Z,83.90
2019-05-07T12:19:24.551Z,83.10
2019-05-07T12:21:53.779Z,82.00
2019-05-07T12:24:22.873Z,81.90
2019-05-07T12:26:52.309Z,83.00
2019-05-07T12:29:22.151Z,84.90
2019-05-07T12:32:22.644Z,85.10
2019-05-07T12:34:56.129Z,83.60
2019-05-07T12:37:25.412Z,83.00
2019-05-07T12:39:54.498Z,84.70
2019-05-07T12:42:23.729Z,84.50
2019-05-07T12:44:52.810Z,85.60
2019-05-07T12:47:22.477Z,86.40
2019-05-07T12:49:51.827Z,82.50
2019-05-07T12:52:36.561Z,82.80
2019-05-07T12:55:23.107Z,83.30
2019-05-07T12:57:52.605Z,81.00
2019-05-07T13:00:39.889Z,82.40
2019-05-07T13:03:28.059Z,80.60
2019-05-07T13:05:57.285Z,81.20
2019-05-07T13:08:26.536Z,81.70
2019-05-07T13:10:55.741Z,82.50
2019-05-07T13:13:25.014Z,84.10
2019-05-07T13:15:54.166Z,80.70
2019-05-07T13:18:23.480Z,80.10
2019-05-07T13:20:52.773Z,80.30
2019-05-07T13:23:22.610Z,81.20
2019-05-07T13:25:52.333Z,81.40
2019-05-07T13:28:21.851Z,79.30
2019-05-07T13:30:52.646Z,80.20
2019-05-07T13:33:23.139Z,80.70
2019-05-07T13:35:52.726Z,81.40
2019-05-07T13:38:57.343Z,80.70
2019-05-07T13:41:48.581Z,84.30
2019-05-07T13:44:28.551Z,84.30
2019-05-07T13:47:15.901Z,85.20
2019-05-07T13:49:45.500Z,82.90
2019-05-07T13:52:15.907Z,82.60
2019-05-07T13:54:47.240Z,82.40
2019-05-07T13:57:16.531Z,84.90
2019-05-07T13:59:46.149Z,83.20
2019-05-07T14:02:16.098Z,83.50
2019-05-07T14:04:52.655Z,82.80
2019-05-07T14:07:23.011Z,83.60
2019-05-07T14:09:52.849Z,83.80
2019-05-07T14:12:22.946Z,82.90
2019-05-07T14:14:53.312Z,81.90
2019-05-07T14:17:26.502Z,81.80
2019-05-07T14:19:55.646Z,83.00
2019-05-07T14:22:25.912Z,84.20
2019-05-07T14:24:55.666Z,83.70
2019-05-07T14:27:24.843Z,83.30
2019-05-07T14:29:54.247Z,84.50
2019-05-07T14:32:29.938Z,83.40
2019-05-07T14:35:15.479Z,84.10
2019-05-07T14:38:04.192Z,82.00
2019-05-07T14:40:39.571Z,81.80
2019-05-07T14:43:14.141Z,84.80
2019-05-07T14:45:52.219Z,84.20
2019-05-07T14:48:22.598Z,85.10
2019-05-07T14:50:54.827Z,85.30
2019-05-07T14:53:24.088Z,85.70
2019-05-07T14:56:05.064Z,85.40
2019-05-07T14:58:34.343Z,84.80
2019-05-07T15:01:03.799Z,83.60
2019-05-07T15:03:33.156Z,85.30
2019-05-07T15:06:02.807Z,84.30
2019-05-07T15:08:32.381Z,84.10
2019-05-07T15:11:02.764Z,84.80
2019-05-07T15:13:32.354Z,84.40
2019-05-07T15:16:03.122Z,83.30
2019-05-07T15:18:52.757Z,82.30
2019-05-07T15:21:21.706Z,82.80
2019-05-07T15:23:52.957Z,83.30
2019-05-07T15:26:22.587Z,84.70
2019-05-07T15:29:03.371Z,85.20
2019-05-07T15:31:51.745Z,85.30
2019-05-07T15:34:24.037Z,84.50
2019-05-07T15:36:53.420Z,83.40
2019-05-07T15:39:22.793Z,83.70
2019-05-07T15:41:57.112Z,84.20
2019-05-07T15:44:26.367Z,83.60
2019-05-07T15:46:57.176Z,83.20
2019-05-07T15:49:26.555Z,84.90
2019-05-07T15:52:04.710Z,82.90
2019-05-07T15:54:34.055Z,83.00
2019-05-07T15:57:05.563Z,82.40
2019-05-07T15:59:34.805Z,84.20
2019-05-07T16:02:12.546Z,83.50
2019-05-07T16:04:48.189Z,82.60
2019-05-07T16:07:17.465Z,82.70
2019-05-07T16:09:54.431Z,82.10
2019-05-07T16:12:23.902Z,82.40
2019-05-07T16:14:53.304Z,83.80
2019-05-07T16:17:36.477Z,82.80
2019-05-07T16:20:05.801Z,83.80
2019-05-07T16:25:34.847Z,84.00
2019-05-07T16:28:04.859Z,85.10
2019-05-07T16:30:40.318Z,84.50
2019-05-07T16:33:09.867Z,83.70
2019-05-07T16:35:39.052Z,84.30
2019-05-07T16:38:09.397Z,85.60
2019-05-07T16:40:39.530Z,86.50
2019-05-07T16:43:11.837Z,85.40
2019-05-07T16:45:42.458Z,85.40
2019-05-07T16:48:12.099Z,85.40
2019-05-07T16:50:41.545Z,85.90
2019-05-07T16:53:13.423Z,86.10
2019-05-07T16:55:42.989Z,87.00
2019-05-07T16:58:37.540Z,86.80
2019-05-07T17:01:08.824Z,86.70
2019-05-07T17:03:52.134Z,86.80
2019-05-07T17:06:24.764Z,87.30
2019-05-07T17:09:07.561Z,87.20
2019-05-07T17:11:36.780Z,86.50
2019-05-07T17:14:06.104Z,87.10
2019-05-07T17:16:37.492Z,87.00
2019-05-07T17:19:06.823Z,86.80
2019-05-07T17:21:36.406Z,87.00
2019-05-07T17:24:06.410Z,87.30
2019-05-07T17:26:35.741Z,87.60
2019-05-07T17:29:05.250Z,87.80
2019-05-07T17:31:34.698Z,87.70
2019-05-07T17:34:04.697Z,88.40
2019-05-07T17:36:33.970Z,88.30
2019-05-07T17:39:05.827Z,88.50
2019-05-07T17:41:35.306Z,89.30
2019-05-07T17:44:04.646Z,88.50
2019-05-07T17:46:33.823Z,88.70
2019-05-07T17:49:03.071Z,89.20
2019-05-07T17:51:52.588Z,89.00
2019-05-07T17:54:22.484Z,89.10
2019-05-07T17:56:52.696Z,89.30
2019-05-07T17:59:22.081Z,89.40
2019-05-07T18:02:07.063Z,89.50
2019-05-07T18:04:48.462Z,89.40
2019-05-07T18:07:11.767Z,89.90
2019-05-07T18:09:42.428Z,90.00
2019-05-07T18:12:12.362Z,90.20
2019-05-07T18:14:42.597Z,90.20
2019-05-07T18:17:29.139Z,90.30
2019-05-07T18:19:58.427Z,90.70
2019-05-07T18:22:27.860Z,90.70
2019-05-07T18:24:57.124Z,90.50
2019-05-07T18:27:26.336Z,91.20
2019-05-07T18:29:55.456Z,91.30
2019-05-07T18:32:32.435Z,90.80
2019-05-07T18:35:02.332Z,90.90
2019-05-07T18:37:32.598Z,91.00
2019-05-07T18:40:02.635Z,90.90
2019-05-07T18:42:38.702Z,91.00
2019-05-07T18:45:08.574Z,91.10
2019-05-07T18:47:44.001Z,91.60
2019-05-07T18:50:13.436Z,91.50
2019-05-07T18:52:45.137Z,91.90
2019-05-07T18:55:14.561Z,91.90
2019-05-07T18:57:51.405Z,92.00
2019-05-07T19:00:27.430Z,92.50
2019-05-07T19:02:56.723Z,93.00
2019-05-07T19:05:35.021Z,93.50
2019-05-07T19:08:08.346Z,93.60
2019-05-07T19:10:35.079Z,93.90
2019-05-07T19:13:04.195Z,94.30
2019-05-07T19:15:33.240Z,94.70
2019-05-07T19:18:02.826Z,95.00
2019-05-07T19:20:32.741Z,95.20
2019-05-07T19:23:02.836Z,95.40
2019-05-07T19:25:44.682Z,95.90
2019-05-07T19:28:15.065Z,96.30
2019-05-07T19:30:44.595Z,96.60
2019-05-07T19:33:15.391Z,97.20
2019-05-07T19:35:48.243Z,97.60
2019-05-07T19:38:22.578Z,98.10
2019-05-07T19:40:53.380Z,98.80
2019-05-07T19:43:24.549Z,99.60
2019-05-07T19:45:53.983Z,99.90
2019-05-07T19:48:33.855Z,99.90
2019-05-07T19:51:08.057Z,99.90
2019-05-07T19:53:37.551Z,99.90
2019-05-07T19:56:16.735Z,99.90
2019-05-07T19:58:46.947Z,99.90
2019-05-07T20:01:39.603Z,99.90
2019-05-07T20:04:08.880Z,99.90
2019-05-07T20:06:44.190Z,99.90
2019-05-07T20:09:15.730Z,99.90
2019-05-07T20:11:47.319Z,99.90
2019-05-07T20:14:16.576Z,99.90
2019-05-07T20:16:46.183Z,99.90
2019-05-07T20:19:15.269Z,99.90
2019-05-07T20:21:44.611Z,99.90
2019-05-07T20:24:13.717Z,99.90
2019-05-07T20:26:43.277Z,99.90
2019-05-07T20:29:12.787Z,99.90
2019-05-07T20:31:42.453Z,99.90
2019-05-07T20:34:13.043Z,99.90
2019-05-07T20:36:42.839Z,99.90
2019-05-07T20:39:12.762Z,99.90
2019-05-07T20:41:42.915Z,99.90
2019-05-07T20:44:12.421Z,99.90
2019-05-07T20:46:42.115Z,99.90
2019-05-07T20:49:13.103Z,99.90
2019-05-07T20:51:42.511Z,99.90
2019-05-07T20:54:46.191Z,99.90
2019-05-07T20:57:18.545Z,99.90
2019-05-07T20:59:47.723Z,99.90
2019-05-07T21:02:16.810Z,99.90
2019-05-07T21:04:52.273Z,99.90
2019-05-07T21:07:22.188Z,99.90
2019-05-07T21:09:52.952Z,99.90
2019-05-07T21:12:22.600Z,99.90
2019-05-07T21:14:52.463Z,99.90
2019-05-07T21:17:22.677Z,99.90
2019-05-07T21:19:51.999Z,99.90
2019-05-07T21:22:22.644Z,99.90
2019-05-07T21:24:53.258Z,99.90
2019-05-07T21:27:24.590Z,99.90
2019-05-07T21:29:53.823Z,99.90
2019-05-07T21:32:26.323Z,99.90
2019-05-07T21:34:55.530Z,99.90
2019-05-07T21:37:24.552Z,99.90
2019-05-07T21:39:53.971Z,99.90
2019-05-07T21:42:23.301Z,99.90
2019-05-07T21:44:52.786Z,99.90
2019-05-07T21:47:22.372Z,99.90
2019-05-07T21:49:54.869Z,99.90
2019-05-07T21:52:29.924Z,99.90
2019-05-07T21:55:12.828Z,99.90
2019-05-07T21:58:02.213Z,99.90
2019-05-07T22:00:48.909Z,99.90
2019-05-07T22:03:18.479Z,99.90
2019-05-07T22:05:47.612Z,99.90
2019-05-07T22:08:16.922Z,99.90
2019-05-07T22:10:46.139Z,99.90
2019-05-07T22:13:15.239Z,99.90
2019-05-07T22:15:44.459Z,99.90
2019-05-07T22:18:13.845Z,99.90
2019-05-07T22:20:42.926Z,99.90
2019-05-07T22:23:12.024Z,99.90
2019-05-07T22:25:42.179Z,99.90
2019-05-07T22:28:13.350Z,99.90
2019-05-07T22:31:13.976Z,99.90
2019-05-07T22:33:49.967Z,99.90
2019-05-07T22:36:19.156Z,99.90
2019-05-07T22:38:48.363Z,99.90
2019-05-07T22:41:22.719Z,99.90
2019-05-07T22:43:51.875Z,99.90
2019-05-07T22:46:22.249Z,99.90
2019-05-07T22:48:51.514Z,99.90
2019-05-07T22:51:22.704Z,99.90
2019-05-07T22:53:51.502Z,99.90
2019-05-07T22:56:34.189Z,99.90
2019-05-07T22:58:53.588Z,99.90
2019-05-07T23:01:22.816Z,99.90
2019-05-07T23:03:54.001Z,99.90
2019-05-07T23:06:23.305Z,99.90
2019-05-07T23:08:53.094Z,99.90
2019-05-07T23:11:22.977Z,99.90
2019-05-07T23:13:54.681Z,99.90
2019-05-07T23:16:23.342Z,99.90
2019-05-07T23:18:52.550Z,99.90
2019-05-07T23:21:24.252Z,99.90
2019-05-07T23:23:52.862Z,99.90
2019-05-07T23:26:23.328Z,99.90
2019-05-07T23:28:52.707Z,99.90
2019-05-07T23:31:22.819Z,99.90
2019-05-07T23:33:52.529Z,99.90
2019-05-07T23:36:22.526Z,99.90
2019-05-07T23:38:52.245Z,99.90
2019-05-07T23:41:43.457Z,99.90
2019-05-07T23:44:14.491Z,99.90
2019-05-07T23:46:44.756Z,99.90
2019-05-07T23:49:14.537Z,99.90
2019-05-07T23:51:43.731Z,99.90
2019-05-07T23:54:12.851Z,99.90
2019-05-07T23:56:42.667Z,99.90
2019-05-07T23:59:14.773Z,99.90
